sensor_id;sensor_type;location;lat;lon;timestamp;temperature;humidity
62998;DHT22;55949;52.590;7.330;2023-05-19T00:00:32;9.70;99.90
62998;DHT22;55949;52.590;7.330;2023-05-19T00:01:33;9.70;99.90
62998;DHT22;55949;52.590;7.330;2023-05-19T00:02:36;9.70;99.90
62998;DHT22;55949;52.590;7.330;2023-05-19T00:03:51;9.70;99.90
62998;DHT22;55949;52.590;7.330;2023-05-19T00:04:53;9.70;99.90
62998;DHT22;55949;52.590;7.330;2023-05-19T00:05:55;9.70;99.90
62998;DHT22;55949;52.590;7.330;2023-05-19T00:06:58;9.70;99.90
62998;DHT22;55949;52.590;7.330;2023-05-19T00:08:00;9.70;99.90
62998;DHT22;55949;52.590;7.330;2023-05-19T00:09:04;9.70;99.90
62998;DHT22;55949;52.590;7.330;2023-05-19T00:10:09;9.70;99.90
62998;DHT22;55949;52.590;7.330;2023-05-19T00:11:10;9.70;99.90
62998;DHT22;55949;52.590;7.330;2023-05-19T00:12:11;9.70;99.90
62998;DHT22;55949;52.590;7.330;2023-05-19T00:13:12;9.70;99.90
62998;DHT22;55949;52.590;7.330;2023-05-19T00:14:13;9.70;99.90
62998;DHT22;55949;52.590;7.330;2023-05-19T00:15:14;9.80;99.90
62998;DHT22;55949;52.590;7.330;2023-05-19T00:16:16;9.80;99.90
62998;DHT22;55949;52.590;7.330;2023-05-19T00:17:17;9.80;99.90
62998;DHT22;55949;52.590;7.330;2023-05-19T00:18:17;9.90;99.90
62998;DHT22;55949;52.590;7.330;2023-05-19T00:19:18;9.90;99.90
62998;DHT22;55949;52.590;7.330;2023-05-19T00:20:19;9.80;99.90
62998;DHT22;55949;52.590;7.330;2023-05-19T00:21:19;9.90;99.90
62998;DHT22;55949;52.590;7.330;2023-05-19T00:22:20;9.90;99.90
62998;DHT22;55949;52.590;7.330;2023-05-19T00:23:21;9.90;99.90
62998;DHT22;55949;52.590;7.330;2023-05-19T00:24:21;9.90;99.90
62998;DHT22;55949;52.590;7.330;2023-05-19T00:25:22;9.90;99.90
62998;DHT22;55949;52.590;7.330;2023-05-19T00:26:24;9.90;99.90
62998;DHT22;55949;52.590;7.330;2023-05-19T00:27:26;9.80;99.90
62998;DHT22;55949;52.590;7.330;2023-05-19T00:28:26;9.80;99.90
62998;DHT22;55949;52.590;7.330;2023-05-19T00:29:28;9.80;99.90
62998;DHT22;55949;52.590;7.330;2023-05-19T00:30:29;9.80;99.90
62998;DHT22;55949;52.590;7.330;2023-05-19T00:31:30;9.80;99.90
62998;DHT22;55949;52.590;7.330;2023-05-19T00:32:31;9.80;99.90
62998;DHT22;55949;52.590;7.330;2023-05-19T00:33:31;9.80;99.90
62998;DHT22;55949;52.590;7.330;2023-05-19T00:34:35;9.80;99.90
62998;DHT22;55949;52.590;7.330;2023-05-19T00:35:35;9.80;99.90
62998;DHT22;55949;52.590;7.330;2023-05-19T00:36:36;9.80;99.90
62998;DHT22;55949;52.590;7.330;2023-05-19T00:37:37;9.80;99.90
62998;DHT22;55949;52.590;7.330;2023-05-19T00:38:37;9.80;99.90
62998;DHT22;55949;52.590;7.330;2023-05-19T00:39:38;9.80;99.90
62998;DHT22;55949;52.590;7.330;2023-05-19T00:40:39;9.80;99.90
62998;DHT22;55949;52.590;7.330;2023-05-19T00:41:40;9.80;99.90
62998;DHT22;55949;52.590;7.330;2023-05-19T00:42:41;9.70;99.90
62998;DHT22;55949;52.590;7.330;2023-05-19T00:43:42;9.70;99.90
62998;DHT22;55949;52.590;7.330;2023-05-19T00:44:42;9.80;99.90
62998;DHT22;55949;52.590;7.330;2023-05-19T00:45:43;9.80;99.90
62998;DHT22;55949;52.590;7.330;2023-05-19T00:46:44;9.80;99.90
62998;DHT22;55949;52.590;7.330;2023-05-19T00:47:44;9.80;99.90
62998;DHT22;55949;52.590;7.330;2023-05-19T00:48:45;9.80;99.90
62998;DHT22;55949;52.590;7.330;2023-05-19T00:49:46;9.80;99.90
62998;DHT22;55949;52.590;7.330;2023-05-19T00:50:47;9.80;99.90
62998;DHT22;55949;52.590;7.330;2023-05-19T00:51:48;9.80;99.90
62998;DHT22;55949;52.590;7.330;2023-05-19T00:52:50;9.70;99.90
62998;DHT22;55949;52.590;7.330;2023-05-19T00:53:50;9.60;99.90
62998;DHT22;55949;52.590;7.330;2023-05-19T00:54:52;9.60;99.90
62998;DHT22;55949;52.590;7.330;2023-05-19T00:55:53;9.60;99.90
62998;DHT22;55949;52.590;7.330;2023-05-19T00:56:55;9.50;99.90
62998;DHT22;55949;52.590;7.330;2023-05-19T00:57:57;9.50;99.90
62998;DHT22;55949;52.590;7.330;2023-05-19T00:58:58;9.50;99.90
62998;DHT22;55949;52.590;7.330;2023-05-19T01:00:00;9.50;99.90
62998;DHT22;55949;52.590;7.330;2023-05-19T01:01:01;9.40;99.90
62998;DHT22;55949;52.590;7.330;2023-05-19T01:02:06;9.40;99.90
62998;DHT22;55949;52.590;7.330;2023-05-19T01:03:07;9.40;99.90
62998;DHT22;55949;52.590;7.330;2023-05-19T01:04:10;9.40;99.90
62998;DHT22;55949;52.590;7.330;2023-05-19T01:05:16;9.40;99.90
62998;DHT22;55949;52.590;7.330;2023-05-19T01:06:17;9.40;99.90
62998;DHT22;55949;52.590;7.330;2023-05-19T01:07:21;9.40;99.90
62998;DHT22;55949;52.590;7.330;2023-05-19T01:08:22;9.40;99.90
62998;DHT22;55949;52.590;7.330;2023-05-19T01:09:23;9.40;99.90
62998;DHT22;55949;52.590;7.330;2023-05-19T01:10:24;9.40;99.90
62998;DHT22;55949;52.590;7.330;2023-05-19T01:11:25;9.30;99.90
62998;DHT22;55949;52.590;7.330;2023-05-19T01:12:25;9.30;99.90
62998;DHT22;55949;52.590;7.330;2023-05-19T01:13:27;9.40;99.90
62998;DHT22;55949;52.590;7.330;2023-05-19T01:14:28;9.40;99.90
62998;DHT22;55949;52.590;7.330;2023-05-19T01:15:36;9.40;99.90
62998;DHT22;55949;52.590;7.330;2023-05-19T01:17:05;9.40;99.90
62998;DHT22;55949;52.590;7.330;2023-05-19T01:18:11;9.40;99.90
62998;DHT22;55949;52.590;7.330;2023-05-19T01:21:05;9.30;99.90
62998;DHT22;55949;52.590;7.330;2023-05-19T01:23:53;9.30;99.90
62998;DHT22;55949;52.590;7.330;2023-05-19T01:31:24;9.40;99.90
62998;DHT22;55949;52.590;7.330;2023-05-19T01:32:26;9.40;99.90
62998;DHT22;55949;52.590;7.330;2023-05-19T01:33:29;9.40;99.90
62998;DHT22;55949;52.590;7.330;2023-05-19T01:34:33;9.30;99.90
62998;DHT22;55949;52.590;7.330;2023-05-19T01:35:38;9.30;99.90
62998;DHT22;55949;52.590;7.330;2023-05-19T01:36:40;9.30;99.90
62998;DHT22;55949;52.590;7.330;2023-05-19T01:37:44;9.30;99.90
62998;DHT22;55949;52.590;7.330;2023-05-19T01:38:48;9.30;99.90
62998;DHT22;55949;52.590;7.330;2023-05-19T01:39:49;9.30;99.90
62998;DHT22;55949;52.590;7.330;2023-05-19T01:40:51;9.30;99.90
62998;DHT22;55949;52.590;7.330;2023-05-19T01:41:53;9.30;99.90
62998;DHT22;55949;52.590;7.330;2023-05-19T01:42:56;9.40;99.90
62998;DHT22;55949;52.590;7.330;2023-05-19T01:43:58;9.40;99.90
62998;DHT22;55949;52.590;7.330;2023-05-19T01:44:59;9.40;99.90
62998;DHT22;55949;52.590;7.330;2023-05-19T01:46:01;9.40;99.90
62998;DHT22;55949;52.590;7.330;2023-05-19T01:47:02;9.40;99.90
62998;DHT22;55949;52.590;7.330;2023-05-19T01:48:04;9.40;99.90
62998;DHT22;55949;52.590;7.330;2023-05-19T01:49:05;9.40;99.90
62998;DHT22;55949;52.590;7.330;2023-05-19T01:50:07;9.50;99.90
62998;DHT22;55949;52.590;7.330;2023-05-19T01:51:08;9.50;99.90
62998;DHT22;55949;52.590;7.330;2023-05-19T01:52:08;9.40;99.90
62998;DHT22;55949;52.590;7.330;2023-05-19T01:53:09;9.40;99.90
62998;DHT22;55949;52.590;7.330;2023-05-19T01:54:10;9.40;99.90
62998;DHT22;55949;52.590;7.330;2023-05-19T01:55:11;9.40;99.90
62998;DHT22;55949;52.590;7.330;2023-05-19T01:56:16;9.30;99.90
62998;DHT22;55949;52.590;7.330;2023-05-19T01:57:52;9.30;99.90
62998;DHT22;55949;52.590;7.330;2023-05-19T01:59:00;9.20;99.90
62998;DHT22;55949;52.590;7.330;2023-05-19T02:07:04;9.30;99.90
62998;DHT22;55949;52.590;7.330;2023-05-19T02:09:24;9.30;99.90
62998;DHT22;55949;52.590;7.330;2023-05-19T02:10:28;9.30;99.90
62998;DHT22;55949;52.590;7.330;2023-05-19T02:11:46;9.30;99.90
62998;DHT22;55949;52.590;7.330;2023-05-19T02:12:52;9.30;99.90
62998;DHT22;55949;52.590;7.330;2023-05-19T02:13:55;9.30;99.90
62998;DHT22;55949;52.590;7.330;2023-05-19T02:15:15;9.40;99.90
62998;DHT22;55949;52.590;7.330;2023-05-19T02:16:16;9.40;99.90
62998;DHT22;55949;52.590;7.330;2023-05-19T02:17:19;9.50;99.90
62998;DHT22;55949;52.590;7.330;2023-05-19T02:18:20;9.50;99.90
62998;DHT22;55949;52.590;7.330;2023-05-19T02:19:25;9.60;99.90
62998;DHT22;55949;52.590;7.330;2023-05-19T02:20:26;9.50;99.90
62998;DHT22;55949;52.590;7.330;2023-05-19T02:21:27;9.40;99.90
62998;DHT22;55949;52.590;7.330;2023-05-19T02:22:27;9.40;99.90
62998;DHT22;55949;52.590;7.330;2023-05-19T02:23:28;9.40;99.90
62998;DHT22;55949;52.590;7.330;2023-05-19T02:24:29;9.30;99.90
62998;DHT22;55949;52.590;7.330;2023-05-19T02:25:30;9.30;99.90
62998;DHT22;55949;52.590;7.330;2023-05-19T02:26:31;9.20;99.90
62998;DHT22;55949;52.590;7.330;2023-05-19T02:27:32;9.20;99.90
62998;DHT22;55949;52.590;7.330;2023-05-19T02:28:36;9.20;99.90
62998;DHT22;55949;52.590;7.330;2023-05-19T02:29:37;9.10;99.90
62998;DHT22;55949;52.590;7.330;2023-05-19T02:30:37;9.10;99.90
62998;DHT22;55949;52.590;7.330;2023-05-19T02:31:38;9.10;99.90
62998;DHT22;55949;52.590;7.330;2023-05-19T02:32:39;9.10;99.90
62998;DHT22;55949;52.590;7.330;2023-05-19T02:33:39;9.00;99.90
62998;DHT22;55949;52.590;7.330;2023-05-19T02:34:41;9.00;99.90
62998;DHT22;55949;52.590;7.330;2023-05-19T02:35:44;9.00;99.90
62998;DHT22;55949;52.590;7.330;2023-05-19T02:36:45;9.00;99.90
62998;DHT22;55949;52.590;7.330;2023-05-19T02:37:49;9.00;99.90
62998;DHT22;55949;52.590;7.330;2023-05-19T02:38:49;8.90;99.90
62998;DHT22;55949;52.590;7.330;2023-05-19T02:39:50;9.00;99.90
62998;DHT22;55949;52.590;7.330;2023-05-19T02:40:51;8.90;99.90
62998;DHT22;55949;52.590;7.330;2023-05-19T02:41:52;8.90;99.90
62998;DHT22;55949;52.590;7.330;2023-05-19T02:42:53;8.90;99.90
62998;DHT22;55949;52.590;7.330;2023-05-19T02:43:55;8.90;99.90
62998;DHT22;55949;52.590;7.330;2023-05-19T02:44:56;8.90;99.90
62998;DHT22;55949;52.590;7.330;2023-05-19T02:45:56;8.80;99.90
62998;DHT22;55949;52.590;7.330;2023-05-19T02:46:57;8.80;99.90
62998;DHT22;55949;52.590;7.330;2023-05-19T02:47:58;8.80;99.90
62998;DHT22;55949;52.590;7.330;2023-05-19T02:48:59;8.80;99.90
62998;DHT22;55949;52.590;7.330;2023-05-19T02:49:59;8.80;99.90
62998;DHT22;55949;52.590;7.330;2023-05-19T02:51:00;8.80;99.90
62998;DHT22;55949;52.590;7.330;2023-05-19T02:52:01;8.90;99.90
62998;DHT22;55949;52.590;7.330;2023-05-19T02:53:03;8.80;99.90
62998;DHT22;55949;52.590;7.330;2023-05-19T02:54:04;8.80;99.90
62998;DHT22;55949;52.590;7.330;2023-05-19T02:55:05;8.80;99.90
62998;DHT22;55949;52.590;7.330;2023-05-19T02:56:06;8.80;99.90
62998;DHT22;55949;52.590;7.330;2023-05-19T02:57:06;8.70;99.90
62998;DHT22;55949;52.590;7.330;2023-05-19T02:58:07;8.80;99.90
62998;DHT22;55949;52.590;7.330;2023-05-19T02:59:08;8.80;99.90
62998;DHT22;55949;52.590;7.330;2023-05-19T03:00:09;8.80;99.90
62998;DHT22;55949;52.590;7.330;2023-05-19T03:01:09;8.80;99.90
62998;DHT22;55949;52.590;7.330;2023-05-19T03:02:10;8.80;99.90
62998;DHT22;55949;52.590;7.330;2023-05-19T03:03:11;8.90;99.90
62998;DHT22;55949;52.590;7.330;2023-05-19T03:04:12;8.80;99.90
62998;DHT22;55949;52.590;7.330;2023-05-19T03:05:13;8.80;99.90
62998;DHT22;55949;52.590;7.330;2023-05-19T03:06:14;8.70;99.90
62998;DHT22;55949;52.590;7.330;2023-05-19T03:07:14;8.70;99.90
62998;DHT22;55949;52.590;7.330;2023-05-19T03:08:15;8.80;99.90
62998;DHT22;55949;52.590;7.330;2023-05-19T03:09:16;8.80;99.90
62998;DHT22;55949;52.590;7.330;2023-05-19T03:10:17;8.70;99.90
62998;DHT22;55949;52.590;7.330;2023-05-19T03:11:18;8.70;99.90
62998;DHT22;55949;52.590;7.330;2023-05-19T03:12:18;8.70;99.90
62998;DHT22;55949;52.590;7.330;2023-05-19T03:13:19;8.70;99.90
62998;DHT22;55949;52.590;7.330;2023-05-19T03:14:20;8.70;99.90
62998;DHT22;55949;52.590;7.330;2023-05-19T03:15:23;8.70;99.90
62998;DHT22;55949;52.590;7.330;2023-05-19T03:16:23;8.70;99.90
62998;DHT22;55949;52.590;7.330;2023-05-19T03:17:24;8.70;99.90
62998;DHT22;55949;52.590;7.330;2023-05-19T03:18:25;8.70;99.90
62998;DHT22;55949;52.590;7.330;2023-05-19T03:19:26;8.70;99.90
62998;DHT22;55949;52.590;7.330;2023-05-19T03:20:27;8.70;99.90
62998;DHT22;55949;52.590;7.330;2023-05-19T03:21:29;8.70;99.90
62998;DHT22;55949;52.590;7.330;2023-05-19T03:22:31;8.70;99.90
62998;DHT22;55949;52.590;7.330;2023-05-19T03:23:32;8.70;99.90
62998;DHT22;55949;52.590;7.330;2023-05-19T03:24:33;8.70;99.90
62998;DHT22;55949;52.590;7.330;2023-05-19T03:25:33;8.70;99.90
62998;DHT22;55949;52.590;7.330;2023-05-19T03:26:34;8.70;99.90
62998;DHT22;55949;52.590;7.330;2023-05-19T03:27:35;8.70;99.90
62998;DHT22;55949;52.590;7.330;2023-05-19T03:28:35;8.70;99.90
62998;DHT22;55949;52.590;7.330;2023-05-19T03:29:36;8.70;99.90
62998;DHT22;55949;52.590;7.330;2023-05-19T03:30:37;8.70;99.90
62998;DHT22;55949;52.590;7.330;2023-05-19T03:31:37;8.60;99.90
62998;DHT22;55949;52.590;7.330;2023-05-19T03:32:38;8.60;99.90
62998;DHT22;55949;52.590;7.330;2023-05-19T03:33:39;8.60;99.90
62998;DHT22;55949;52.590;7.330;2023-05-19T03:34:40;8.50;99.90
62998;DHT22;55949;52.590;7.330;2023-05-19T03:35:40;8.50;99.90
62998;DHT22;55949;52.590;7.330;2023-05-19T03:36:41;8.50;99.90
62998;DHT22;55949;52.590;7.330;2023-05-19T03:37:42;8.50;99.90
62998;DHT22;55949;52.590;7.330;2023-05-19T03:38:43;8.40;99.90
62998;DHT22;55949;52.590;7.330;2023-05-19T03:39:43;8.40;99.90
62998;DHT22;55949;52.590;7.330;2023-05-19T03:40:44;8.40;99.90
62998;DHT22;55949;52.590;7.330;2023-05-19T03:41:45;8.40;99.90
62998;DHT22;55949;52.590;7.330;2023-05-19T03:42:45;8.40;99.90
62998;DHT22;55949;52.590;7.330;2023-05-19T03:43:46;8.40;99.90
62998;DHT22;55949;52.590;7.330;2023-05-19T03:44:47;8.40;99.90
62998;DHT22;55949;52.590;7.330;2023-05-19T03:45:47;8.40;99.90
62998;DHT22;55949;52.590;7.330;2023-05-19T03:46:48;8.40;99.90
62998;DHT22;55949;52.590;7.330;2023-05-19T03:47:49;8.40;99.90
62998;DHT22;55949;52.590;7.330;2023-05-19T03:48:49;8.40;99.90
62998;DHT22;55949;52.590;7.330;2023-05-19T03:49:50;8.40;99.90
62998;DHT22;55949;52.590;7.330;2023-05-19T03:50:51;8.40;99.90
62998;DHT22;55949;52.590;7.330;2023-05-19T03:51:52;8.40;99.90
62998;DHT22;55949;52.590;7.330;2023-05-19T03:52:53;8.40;99.90
62998;DHT22;55949;52.590;7.330;2023-05-19T03:53:54;8.30;99.90
62998;DHT22;55949;52.590;7.330;2023-05-19T03:54:55;8.30;99.90
62998;DHT22;55949;52.590;7.330;2023-05-19T03:55:57;8.20;99.90
62998;DHT22;55949;52.590;7.330;2023-05-19T03:56:58;8.20;99.90
62998;DHT22;55949;52.590;7.330;2023-05-19T03:57:59;8.10;99.90
62998;DHT22;55949;52.590;7.330;2023-05-19T03:59:00;8.10;99.90
62998;DHT22;55949;52.590;7.330;2023-05-19T04:00:01;8.10;99.90
62998;DHT22;55949;52.590;7.330;2023-05-19T04:01:02;8.10;99.90
62998;DHT22;55949;52.590;7.330;2023-05-19T04:02:02;8.10;99.90
62998;DHT22;55949;52.590;7.330;2023-05-19T04:03:03;8.10;99.90
62998;DHT22;55949;52.590;7.330;2023-05-19T04:04:04;8.10;99.90
62998;DHT22;55949;52.590;7.330;2023-05-19T04:05:05;8.10;99.90
62998;DHT22;55949;52.590;7.330;2023-05-19T04:06:07;8.20;99.90
62998;DHT22;55949;52.590;7.330;2023-05-19T04:07:07;8.20;99.90
62998;DHT22;55949;52.590;7.330;2023-05-19T04:08:08;8.20;99.90
62998;DHT22;55949;52.590;7.330;2023-05-19T04:09:13;8.20;99.90
62998;DHT22;55949;52.590;7.330;2023-05-19T04:10:14;8.30;99.90
62998;DHT22;55949;52.590;7.330;2023-05-19T04:11:14;8.30;99.90
62998;DHT22;55949;52.590;7.330;2023-05-19T04:12:15;8.30;99.90
62998;DHT22;55949;52.590;7.330;2023-05-19T04:13:16;8.40;99.90
62998;DHT22;55949;52.590;7.330;2023-05-19T04:14:17;8.40;99.90
62998;DHT22;55949;52.590;7.330;2023-05-19T04:15:19;8.40;99.90
62998;DHT22;55949;52.590;7.330;2023-05-19T04:16:20;8.50;99.90
62998;DHT22;55949;52.590;7.330;2023-05-19T04:17:21;8.50;99.90
62998;DHT22;55949;52.590;7.330;2023-05-19T04:18:25;8.50;99.90
62998;DHT22;55949;52.590;7.330;2023-05-19T04:19:26;8.50;99.90
62998;DHT22;55949;52.590;7.330;2023-05-19T04:20:27;8.60;99.90
62998;DHT22;55949;52.590;7.330;2023-05-19T04:21:27;8.60;99.90
62998;DHT22;55949;52.590;7.330;2023-05-19T04:22:28;8.60;99.90
62998;DHT22;55949;52.590;7.330;2023-05-19T04:23:29;8.60;99.90
62998;DHT22;55949;52.590;7.330;2023-05-19T04:24:30;8.60;99.90
62998;DHT22;55949;52.590;7.330;2023-05-19T04:25:31;8.60;99.90
62998;DHT22;55949;52.590;7.330;2023-05-19T04:26:32;8.60;99.90
62998;DHT22;55949;52.590;7.330;2023-05-19T04:27:33;8.60;99.90
62998;DHT22;55949;52.590;7.330;2023-05-19T04:28:38;8.60;99.90
62998;DHT22;55949;52.590;7.330;2023-05-19T04:29:41;8.60;99.90
62998;DHT22;55949;52.590;7.330;2023-05-19T04:30:42;8.60;99.90
62998;DHT22;55949;52.590;7.330;2023-05-19T04:31:45;8.60;99.90
62998;DHT22;55949;52.590;7.330;2023-05-19T04:32:48;8.50;99.90
62998;DHT22;55949;52.590;7.330;2023-05-19T04:33:52;8.60;99.90
62998;DHT22;55949;52.590;7.330;2023-05-19T04:34:52;8.50;99.90
62998;DHT22;55949;52.590;7.330;2023-05-19T04:35:53;8.50;99.90
62998;DHT22;55949;52.590;7.330;2023-05-19T04:36:54;8.40;99.90
62998;DHT22;55949;52.590;7.330;2023-05-19T04:37:54;8.40;99.90
62998;DHT22;55949;52.590;7.330;2023-05-19T04:38:55;8.40;99.90
62998;DHT22;55949;52.590;7.330;2023-05-19T04:40:01;8.40;99.90
62998;DHT22;55949;52.590;7.330;2023-05-19T04:41:03;8.50;99.90
62998;DHT22;55949;52.590;7.330;2023-05-19T04:42:04;8.50;99.90
62998;DHT22;55949;52.590;7.330;2023-05-19T04:43:05;8.50;99.90
62998;DHT22;55949;52.590;7.330;2023-05-19T04:44:06;8.60;99.90
62998;DHT22;55949;52.590;7.330;2023-05-19T04:45:09;8.60;99.90
62998;DHT22;55949;52.590;7.330;2023-05-19T04:46:11;8.60;99.90
62998;DHT22;55949;52.590;7.330;2023-05-19T04:47:12;8.60;99.90
62998;DHT22;55949;52.590;7.330;2023-05-19T04:48:14;8.70;99.90
62998;DHT22;55949;52.590;7.330;2023-05-19T04:49:15;8.70;99.90
62998;DHT22;55949;52.590;7.330;2023-05-19T04:50:15;8.80;99.90
62998;DHT22;55949;52.590;7.330;2023-05-19T04:51:16;8.80;99.90
62998;DHT22;55949;52.590;7.330;2023-05-19T04:52:17;8.90;99.90
62998;DHT22;55949;52.590;7.330;2023-05-19T04:53:21;8.90;99.90
62998;DHT22;55949;52.590;7.330;2023-05-19T04:54:21;8.90;99.90
62998;DHT22;55949;52.590;7.330;2023-05-19T04:55:22;8.90;99.90
62998;DHT22;55949;52.590;7.330;2023-05-19T04:56:23;9.00;99.90
62998;DHT22;55949;52.590;7.330;2023-05-19T04:57:23;9.00;99.90
62998;DHT22;55949;52.590;7.330;2023-05-19T04:58:24;9.00;99.90
62998;DHT22;55949;52.590;7.330;2023-05-19T04:59:25;9.00;99.90
62998;DHT22;55949;52.590;7.330;2023-05-19T05:00:26;9.00;99.90
62998;DHT22;55949;52.590;7.330;2023-05-19T05:01:26;9.10;99.90
62998;DHT22;55949;52.590;7.330;2023-05-19T05:02:27;9.10;99.90
62998;DHT22;55949;52.590;7.330;2023-05-19T05:03:28;9.10;99.90
62998;DHT22;55949;52.590;7.330;2023-05-19T05:04:30;9.20;99.90
62998;DHT22;55949;52.590;7.330;2023-05-19T05:05:30;9.20;99.90
62998;DHT22;55949;52.590;7.330;2023-05-19T05:06:32;9.30;99.90
62998;DHT22;55949;52.590;7.330;2023-05-19T05:07:32;9.40;99.90
62998;DHT22;55949;52.590;7.330;2023-05-19T05:08:34;9.40;99.90
62998;DHT22;55949;52.590;7.330;2023-05-19T05:09:34;9.40;99.90
62998;DHT22;55949;52.590;7.330;2023-05-19T05:10:35;9.40;99.90
62998;DHT22;55949;52.590;7.330;2023-05-19T05:11:36;9.50;99.90
62998;DHT22;55949;52.590;7.330;2023-05-19T05:12:38;9.50;99.90
62998;DHT22;55949;52.590;7.330;2023-05-19T05:13:39;9.50;99.90
62998;DHT22;55949;52.590;7.330;2023-05-19T05:14:40;9.50;99.90
62998;DHT22;55949;52.590;7.330;2023-05-19T05:15:41;9.60;99.90
62998;DHT22;55949;52.590;7.330;2023-05-19T05:16:42;9.60;99.90
62998;DHT22;55949;52.590;7.330;2023-05-19T05:17:43;9.70;99.90
62998;DHT22;55949;52.590;7.330;2023-05-19T05:18:44;9.70;99.90
62998;DHT22;55949;52.590;7.330;2023-05-19T05:19:46;9.70;99.90
62998;DHT22;55949;52.590;7.330;2023-05-19T05:20:48;9.80;99.90
62998;DHT22;55949;52.590;7.330;2023-05-19T05:21:49;9.80;99.90
62998;DHT22;55949;52.590;7.330;2023-05-19T05:22:50;9.90;99.90
62998;DHT22;55949;52.590;7.330;2023-05-19T05:23:51;9.90;99.90
62998;DHT22;55949;52.590;7.330;2023-05-19T05:24:52;9.90;99.90
62998;DHT22;55949;52.590;7.330;2023-05-19T05:25:53;9.90;99.90
62998;DHT22;55949;52.590;7.330;2023-05-19T05:26:54;9.90;99.90
62998;DHT22;55949;52.590;7.330;2023-05-19T05:27:55;9.90;99.90
62998;DHT22;55949;52.590;7.330;2023-05-19T05:28:58;9.90;99.90
62998;DHT22;55949;52.590;7.330;2023-05-19T05:29:59;9.90;99.90
62998;DHT22;55949;52.590;7.330;2023-05-19T05:31:00;9.90;99.90
62998;DHT22;55949;52.590;7.330;2023-05-19T05:32:00;9.90;99.90
62998;DHT22;55949;52.590;7.330;2023-05-19T05:33:01;9.90;99.90
62998;DHT22;55949;52.590;7.330;2023-05-19T05:34:02;10.00;99.90
62998;DHT22;55949;52.590;7.330;2023-05-19T05:35:03;10.00;99.90
62998;DHT22;55949;52.590;7.330;2023-05-19T05:36:04;10.00;99.90
62998;DHT22;55949;52.590;7.330;2023-05-19T05:37:06;10.00;99.90
62998;DHT22;55949;52.590;7.330;2023-05-19T05:38:07;10.10;99.90
62998;DHT22;55949;52.590;7.330;2023-05-19T05:39:07;10.10;99.90
62998;DHT22;55949;52.590;7.330;2023-05-19T05:40:09;10.10;99.90
62998;DHT22;55949;52.590;7.330;2023-05-19T05:41:10;10.20;99.90
62998;DHT22;55949;52.590;7.330;2023-05-19T05:42:10;10.20;99.90
62998;DHT22;55949;52.590;7.330;2023-05-19T05:43:11;10.20;99.90
62998;DHT22;55949;52.590;7.330;2023-05-19T05:44:12;10.20;99.90
62998;DHT22;55949;52.590;7.330;2023-05-19T05:45:13;10.20;99.90
62998;DHT22;55949;52.590;7.330;2023-05-19T05:46:14;10.30;99.90
62998;DHT22;55949;52.590;7.330;2023-05-19T05:47:15;10.30;99.90
62998;DHT22;55949;52.590;7.330;2023-05-19T05:48:16;10.30;99.90
62998;DHT22;55949;52.590;7.330;2023-05-19T05:49:18;10.30;99.90
62998;DHT22;55949;52.590;7.330;2023-05-19T05:50:19;10.40;99.90
62998;DHT22;55949;52.590;7.330;2023-05-19T05:51:21;10.40;99.90
62998;DHT22;55949;52.590;7.330;2023-05-19T05:52:23;10.40;99.90
62998;DHT22;55949;52.590;7.330;2023-05-19T05:53:29;10.50;99.90
62998;DHT22;55949;52.590;7.330;2023-05-19T05:54:31;10.50;99.90
62998;DHT22;55949;52.590;7.330;2023-05-19T05:55:32;10.60;99.90
62998;DHT22;55949;52.590;7.330;2023-05-19T05:56:33;10.50;99.90
62998;DHT22;55949;52.590;7.330;2023-05-19T05:57:36;10.50;99.90
62998;DHT22;55949;52.590;7.330;2023-05-19T05:58:37;10.60;99.90
62998;DHT22;55949;52.590;7.330;2023-05-19T05:59:40;10.60;99.90
62998;DHT22;55949;52.590;7.330;2023-05-19T06:00:41;10.60;99.90
62998;DHT22;55949;52.590;7.330;2023-05-19T06:01:48;10.60;99.90
62998;DHT22;55949;52.590;7.330;2023-05-19T06:02:50;10.70;99.90
62998;DHT22;55949;52.590;7.330;2023-05-19T06:03:50;10.70;99.90
62998;DHT22;55949;52.590;7.330;2023-05-19T06:04:51;10.70;99.90
62998;DHT22;55949;52.590;7.330;2023-05-19T06:05:53;10.80;99.90
62998;DHT22;55949;52.590;7.330;2023-05-19T06:06:54;10.80;99.90
62998;DHT22;55949;52.590;7.330;2023-05-19T06:08:00;10.80;99.90
62998;DHT22;55949;52.590;7.330;2023-05-19T06:09:01;10.90;99.90
62998;DHT22;55949;52.590;7.330;2023-05-19T06:10:02;10.90;99.90
62998;DHT22;55949;52.590;7.330;2023-05-19T06:11:03;10.90;99.90
62998;DHT22;55949;52.590;7.330;2023-05-19T06:12:10;11.00;99.90
62998;DHT22;55949;52.590;7.330;2023-05-19T06:13:11;11.00;99.90
62998;DHT22;55949;52.590;7.330;2023-05-19T06:14:12;11.10;99.90
62998;DHT22;55949;52.590;7.330;2023-05-19T06:15:12;11.20;99.90
62998;DHT22;55949;52.590;7.330;2023-05-19T06:16:13;11.20;99.90
62998;DHT22;55949;52.590;7.330;2023-05-19T06:17:14;11.30;99.90
62998;DHT22;55949;52.590;7.330;2023-05-19T06:18:15;11.40;99.90
62998;DHT22;55949;52.590;7.330;2023-05-19T06:19:18;11.40;99.90
62998;DHT22;55949;52.590;7.330;2023-05-19T06:20:19;11.50;99.90
62998;DHT22;55949;52.590;7.330;2023-05-19T06:21:20;11.60;99.90
62998;DHT22;55949;52.590;7.330;2023-05-19T06:22:21;11.60;99.90
62998;DHT22;55949;52.590;7.330;2023-05-19T06:23:22;11.70;99.90
62998;DHT22;55949;52.590;7.330;2023-05-19T06:24:23;11.80;99.90
62998;DHT22;55949;52.590;7.330;2023-05-19T06:25:24;11.80;99.90
62998;DHT22;55949;52.590;7.330;2023-05-19T06:26:25;11.80;99.90
62998;DHT22;55949;52.590;7.330;2023-05-19T06:27:25;11.80;99.90
62998;DHT22;55949;52.590;7.330;2023-05-19T06:28:26;11.90;99.90
62998;DHT22;55949;52.590;7.330;2023-05-19T06:29:27;11.90;99.90
62998;DHT22;55949;52.590;7.330;2023-05-19T06:30:28;11.80;99.90
62998;DHT22;55949;52.590;7.330;2023-05-19T06:31:28;11.80;99.90
62998;DHT22;55949;52.590;7.330;2023-05-19T06:32:30;11.90;99.90
62998;DHT22;55949;52.590;7.330;2023-05-19T06:33:31;11.90;99.90
62998;DHT22;55949;52.590;7.330;2023-05-19T06:34:32;11.90;99.90
62998;DHT22;55949;52.590;7.330;2023-05-19T06:35:33;11.90;99.90
62998;DHT22;55949;52.590;7.330;2023-05-19T06:36:33;11.90;99.90
62998;DHT22;55949;52.590;7.330;2023-05-19T06:37:35;11.90;99.90
62998;DHT22;55949;52.590;7.330;2023-05-19T06:38:36;12.00;99.90
62998;DHT22;55949;52.590;7.330;2023-05-19T06:39:37;12.00;99.90
62998;DHT22;55949;52.590;7.330;2023-05-19T06:40:37;12.20;99.90
62998;DHT22;55949;52.590;7.330;2023-05-19T06:41:38;12.20;99.90
62998;DHT22;55949;52.590;7.330;2023-05-19T06:42:39;12.30;99.90
62998;DHT22;55949;52.590;7.330;2023-05-19T06:43:40;12.40;99.90
62998;DHT22;55949;52.590;7.330;2023-05-19T06:44:41;12.50;99.90
62998;DHT22;55949;52.590;7.330;2023-05-19T06:45:42;12.50;99.90
62998;DHT22;55949;52.590;7.330;2023-05-19T06:46:43;12.50;99.90
62998;DHT22;55949;52.590;7.330;2023-05-19T06:47:44;12.60;99.90
62998;DHT22;55949;52.590;7.330;2023-05-19T06:48:45;12.60;99.90
62998;DHT22;55949;52.590;7.330;2023-05-19T06:49:46;12.60;99.90
62998;DHT22;55949;52.590;7.330;2023-05-19T06:50:50;12.60;99.90
62998;DHT22;55949;52.590;7.330;2023-05-19T06:51:51;12.60;99.90
62998;DHT22;55949;52.590;7.330;2023-05-19T06:52:52;12.70;99.90